Sherwood, Ohio
Current Conditions -  °F | °C
As of 7:53 PM on Saturday 22 Nov 2014 (Local Time) from KDFI Reporting Station
Overcast Overcast  
Wind Chill: 51°   Ceiling: 3600
Heat Index: 51°   Visibility: 10mi
Dew Point: 42°   Wind: 13mph
Humidity: 71%   Direction: 210°SSW
Pressure: 29.98"   Gusts: NA
Location:  41.29°N, 84.55°W
Report Text: KDFI 230053Z AUTO 21011KT 10SM OVC036 11/06 A2998 RMK AO2 RAE2356 SLP155 P0000 T01060056
Loading
Personal Weather Stations






























Interactive Weather Map New forecast layout! Learn more

10-Day Weather Forecast

Advertisements
Track Severe Weather on mobile